Time,TemperatureF,DewpointF,PressureIn,WindDirection,WindDirectionDegrees,WindSpeedMPH,WindSpeedGustMPH,Humidity,HourlyPrecipIn,Conditions,Clouds,dailyrainin,SoftwareType,DateUTC
2013-08-25 00:00:00,58.1,49.9,29.94,NNW,327,0.0,0.0,74,0.00,,SCT,0.00,VWS V14.01,2013-08-25 07:00:00,
2013-08-25 00:15:00,57.9,49.7,29.94,NNW,327,0.0,0.0,74,0.00,,SCT,0.00,VWS V14.01,2013-08-25 07:15:00,
2013-08-25 00:30:00,57.7,49.5,29.94,NNW,327,0.0,0.0,74,0.00,,SCT,0.00,VWS V14.01,2013-08-25 07:30:00,
2013-08-25 00:45:00,57.7,49.5,29.94,NNW,327,0.0,0.0,74,0.00,,SCT,0.00,VWS V14.01,2013-08-25 07:45:00,
2013-08-25 01:15:00,58.1,49.5,29.94,NNW,327,0.0,0.0,73,0.00,,SCT,0.00,VWS V14.01,2013-08-25 08:15:00,
2013-08-25 01:30:00,57.9,49.3,29.94,NNW,327,0.0,0.0,73,0.00,,SCT,0.00,VWS V14.01,2013-08-25 08:30:00,
2013-08-25 01:45:00,58.1,49.1,29.94,NNW,327,0.0,0.0,72,0.00,,SCT,0.00,VWS V14.01,2013-08-25 08:45:00,
2013-08-25 02:15:00,57.9,48.6,29.94,NNW,327,0.0,0.0,71,0.00,,SCT,0.00,VWS V14.01,2013-08-25 09:15:00,
2013-08-25 02:30:00,57.9,48.2,29.94,NW,321,0.0,0.0,70,0.00,,SCT,0.00,VWS V14.01,2013-08-25 09:30:00,
2013-08-25 02:45:00,57.7,48.0,29.94,NW,321,0.0,0.0,70,0.00,,SCT,0.00,VWS V14.01,2013-08-25 09:45:00,
2013-08-25 03:15:00,57.6,48.6,29.94,NW,321,0.0,0.0,72,0.00,,SCT,0.00,VWS V14.01,2013-08-25 10:15:00,
2013-08-25 03:32:00,57.2,49.0,29.94,NW,321,0.0,0.0,74,0.00,,SCT,0.00,VWS V14.01,2013-08-25 10:32:00,
2013-08-25 03:45:00,56.7,48.8,29.94,NW,321,0.0,0.0,75,0.00,,SCT,0.00,VWS V14.01,2013-08-25 10:45:00,
2013-08-25 04:15:00,56.1,48.3,29.94,NW,321,0.0,0.0,75,0.00,,SCT,0.00,VWS V14.01,2013-08-25 11:15:00,
2013-08-25 04:30:00,55.9,48.1,29.94,NW,321,0.0,0.0,75,0.00,,SCT,0.00,VWS V14.01,2013-08-25 11:30:00,
2013-08-25 04:45:00,55.9,48.1,29.94,NW,321,0.0,0.0,75,0.00,,SCT,0.00,VWS V14.01,2013-08-25 11:45:00,
2013-08-25 05:00:00,55.9,48.5,29.94,NW,321,0.0,0.0,76,0.00,,SCT,0.00,VWS V14.01,2013-08-25 12:00:00,
2013-08-25 05:15:00,55.9,48.5,29.94,NW,321,0.0,0.0,76,0.00,,SCT,0.00,VWS V14.01,2013-08-25 12:15:00,
2013-08-25 05:30:00,56.1,49.0,29.94,NW,321,0.0,0.0,77,0.00,,SCT,0.00,VWS V14.01,2013-08-25 12:30:00,
2013-08-25 05:45:00,56.1,49.0,29.94,NW,321,0.0,0.0,77,0.00,,SCT,0.00,VWS V14.01,2013-08-25 12:45:00,
2013-08-25 06:00:00,55.8,48.7,29.94,NW,321,0.0,0.0,77,0.00,,SCT,0.00,VWS V14.01,2013-08-25 13:00:00,
2013-08-25 06:15:00,55.4,48.7,29.94,NW,321,0.0,0.0,78,0.00,,SCT,0.00,VWS V14.01,2013-08-25 13:15:00,
2013-08-25 06:30:00,55.8,48.3,29.94,NW,321,0.0,0.0,76,0.00,,SCT,0.00,VWS V14.01,2013-08-25 13:30:00,
2013-08-25 06:45:00,55.8,48.0,29.94,NW,321,0.0,0.0,75,0.00,,SCT,0.00,VWS V14.01,2013-08-25 13:45:00,
2013-08-25 07:00:00,55.6,49.2,29.94,NW,321,0.0,0.0,79,0.00,,SCT,0.00,VWS V14.01,2013-08-25 14:00:00,
2013-08-25 07:15:00,55.6,49.5,29.94,NW,321,0.0,0.0,80,0.00,,SCT,0.00,VWS V14.01,2013-08-25 14:15:00,
2013-08-25 07:30:00,55.8,50.0,29.94,NW,321,0.0,0.0,81,0.00,,SCT,0.00,VWS V14.01,2013-08-25 14:30:00,
2013-08-25 07:45:00,55.9,49.9,29.94,NW,321,0.0,0.0,80,0.00,,SCT,0.00,VWS V14.01,2013-08-25 14:45:00,
2013-08-25 08:00:00,56.3,50.2,29.94,NW,321,0.0,0.0,80,0.00,,SCT,0.00,VWS V14.01,2013-08-25 15:00:00,